createdAt,value
2022-10-28T00:00:09.577Z,91.40
2022-10-28T00:02:41.005Z,91.46
2022-10-28T00:05:11.000Z,91.53
2022-10-28T00:07:39.898Z,91.65
2022-10-28T00:10:10.433Z,91.65
2022-10-28T00:12:39.899Z,91.84
2022-10-28T00:15:11.205Z,91.65
2022-10-28T00:17:39.904Z,91.76
2022-10-28T00:20:10.295Z,91.79
2022-10-28T00:22:39.455Z,91.69
2022-10-28T00:25:09.369Z,91.94
2022-10-28T00:27:38.160Z,91.89
2022-10-28T00:30:09.852Z,91.65
2022-10-28T00:32:38.608Z,91.65
2022-10-28T00:35:09.038Z,91.79
2022-10-28T00:37:37.724Z,91.61
2022-10-28T00:40:07.772Z,91.58
2022-10-28T00:42:39.774Z,91.60
2022-10-28T00:45:12.122Z,91.42
2022-10-28T00:47:52.693Z,91.60
2022-10-28T00:50:42.339Z,91.45
2022-10-28T00:53:17.501Z,91.50
2022-10-28T00:55:48.499Z,91.60
2022-10-28T00:58:19.587Z,91.50
2022-10-28T01:00:49.959Z,91.46
2022-10-28T01:03:19.394Z,91.57
2022-10-28T01:05:51.007Z,91.45
2022-10-28T01:08:20.664Z,91.43
2022-10-28T01:11:13.382Z,91.63
2022-10-28T01:14:13.702Z,91.62
2022-10-28T01:17:02.622Z,91.68
2022-10-28T01:20:37.695Z,91.85
2022-10-28T01:23:20.384Z,91.80
2022-10-28T01:26:28.367Z,91.63
2022-10-28T01:29:49.813Z,91.66
2022-10-28T01:32:34.034Z,91.70
2022-10-28T01:35:17.111Z,91.85
2022-10-28T01:37:55.562Z,91.89
2022-10-28T01:40:35.472Z,91.85
2022-10-28T01:43:14.485Z,91.85
2022-10-28T01:45:52.796Z,91.57
2022-10-28T01:48:30.710Z,91.54
2022-10-28T01:51:07.262Z,91.41
2022-10-28T01:53:41.941Z,92.07
2022-10-28T01:56:17.842Z,91.51
2022-10-28T01:58:47.980Z,91.58
2022-10-28T02:01:18.644Z,91.45
2022-10-28T02:03:49.930Z,91.68
2022-10-28T02:06:23.760Z,91.50
2022-10-28T02:09:11.212Z,91.63
2022-10-28T02:12:02.028Z,91.50
2022-10-28T02:15:18.324Z,91.58
2022-10-28T02:18:13.296Z,91.77
2022-10-28T02:20:53.927Z,91.70
2022-10-28T02:23:44.287Z,91.81
2022-10-28T02:26:21.973Z,91.74
2022-10-28T02:29:04.330Z,91.61
2022-10-28T02:31:39.066Z,91.85
2022-10-28T02:34:15.896Z,91.84
2022-10-28T02:36:54.356Z,91.69
2022-10-28T02:39:31.419Z,91.80
2022-10-28T02:42:08.159Z,91.74
2022-10-28T02:44:43.372Z,91.77
2022-10-28T02:47:19.510Z,91.66
2022-10-28T02:49:57.528Z,91.74
2022-10-28T02:52:32.551Z,91.74
2022-10-28T02:55:04.723Z,91.74
2022-10-28T02:57:37.496Z,91.62
2022-10-28T03:00:11.629Z,91.68
2022-10-28T03:02:40.432Z,91.76
2022-10-28T03:05:10.503Z,91.94
2022-10-28T03:07:40.694Z,92.11
2022-10-28T03:10:10.653Z,92.21
2022-10-28T03:12:40.918Z,92.45
2022-10-28T03:15:10.908Z,92.59
2022-10-28T03:17:39.610Z,92.87
2022-10-28T03:20:09.761Z,92.74
2022-10-28T03:22:40.175Z,92.47
2022-10-28T03:25:09.561Z,92.48
2022-10-28T03:27:42.117Z,92.50
2022-10-28T03:30:12.083Z,92.41
2022-10-28T03:32:43.774Z,92.44
2022-10-28T03:35:12.672Z,92.36
2022-10-28T03:37:45.442Z,92.41
2022-10-28T03:40:15.093Z,92.51
2022-10-28T03:42:44.098Z,92.46
2022-10-28T03:45:13.101Z,92.53
2022-10-28T03:47:43.848Z,92.52
2022-10-28T03:50:12.608Z,92.64
2022-10-28T03:52:41.339Z,92.47
2022-10-28T03:55:12.144Z,92.55
2022-10-28T03:57:41.440Z,92.39
2022-10-28T04:00:11.672Z,92.47
2022-10-28T04:02:44.630Z,92.30
2022-10-28T04:05:13.431Z,92.22
2022-10-28T04:07:42.162Z,92.28
2022-10-28T04:10:13.829Z,92.25
2022-10-28T04:12:42.592Z,92.16
2022-10-28T04:15:11.508Z,92.13
2022-10-28T04:17:40.981Z,92.05
2022-10-28T04:20:12.607Z,92.02
2022-10-28T04:22:41.394Z,92.14
2022-10-28T04:25:12.156Z,92.03
2022-10-28T04:27:41.111Z,92.02
2022-10-28T04:30:13.465Z,92.05
2022-10-28T04:32:44.586Z,91.91
2022-10-28T04:35:15.468Z,91.81
2022-10-28T04:37:44.534Z,91.87
2022-10-28T04:40:15.259Z,91.90
2022-10-28T04:42:44.980Z,91.84
2022-10-28T04:45:15.736Z,91.75
2022-10-28T04:47:44.467Z,91.71
2022-10-28T04:50:13.281Z,91.76
2022-10-28T04:52:41.889Z,91.83
2022-10-28T04:55:11.180Z,91.90
2022-10-28T04:57:41.830Z,91.96
2022-10-28T05:00:12.626Z,91.94
2022-10-28T05:02:45.258Z,92.07
2022-10-28T05:07:49.084Z,91.94
2022-10-28T05:10:18.302Z,91.72
2022-10-28T05:12:48.742Z,91.82
2022-10-28T05:15:17.982Z,91.85
2022-10-28T05:17:48.162Z,92.01
2022-10-28T05:20:19.076Z,91.92
2022-10-28T05:22:48.375Z,91.92
2022-10-28T05:25:17.641Z,92.01
2022-10-28T05:27:48.082Z,92.07
2022-10-28T05:30:17.615Z,91.93
2022-10-28T05:32:48.264Z,91.95
2022-10-28T05:35:19.461Z,91.93
2022-10-28T05:37:48.329Z,91.85
2022-10-28T05:40:17.185Z,91.85
2022-10-28T05:42:47.574Z,91.71
2022-10-28T05:45:16.576Z,91.88
2022-10-28T05:47:46.484Z,91.90
2022-10-28T05:50:18.569Z,91.67
2022-10-28T05:52:49.046Z,91.67
2022-10-28T05:55:19.689Z,91.51
2022-10-28T05:57:53.624Z,91.48
2022-10-28T06:00:25.705Z,91.61
2022-10-28T06:02:55.324Z,91.47
2022-10-28T06:05:24.544Z,91.44
2022-10-28T06:07:53.218Z,91.35
2022-10-28T06:10:21.998Z,91.51
2022-10-28T06:12:50.989Z,91.43
2022-10-28T06:15:20.596Z,91.29
2022-10-28T06:17:50.081Z,91.31
2022-10-28T06:20:19.815Z,91.33
2022-10-28T06:22:50.326Z,91.28
2022-10-28T06:25:21.971Z,91.09
2022-10-28T06:27:55.590Z,91.01
2022-10-28T06:30:26.666Z,90.71
2022-10-28T06:32:57.459Z,91.00
2022-10-28T06:35:26.591Z,90.74
2022-10-28T06:37:55.881Z,90.46
2022-10-28T06:40:27.902Z,90.47
2022-10-28T06:43:03.610Z,90.40
2022-10-28T06:45:34.649Z,90.54
2022-10-28T06:48:07.687Z,90.51
2022-10-28T06:50:38.730Z,90.31
2022-10-28T06:53:07.670Z,90.47
2022-10-28T06:55:36.790Z,90.65
2022-10-28T06:58:07.181Z,90.56
2022-10-28T07:00:36.142Z,90.53
2022-10-28T07:03:05.625Z,90.46
2022-10-28T07:05:34.920Z,90.40
2022-10-28T07:08:03.772Z,90.38
2022-10-28T07:10:32.985Z,90.38
2022-10-28T07:13:02.015Z,90.20
2022-10-28T07:15:32.357Z,90.38
2022-10-28T07:18:02.727Z,90.40
2022-10-28T07:20:33.135Z,90.32
2022-10-28T07:23:03.980Z,90.02
2022-10-28T07:25:33.127Z,89.99
2022-10-28T07:28:02.600Z,90.16
2022-10-28T07:30:34.245Z,90.03
2022-10-28T07:33:04.458Z,90.08
2022-10-28T07:35:33.442Z,89.99
2022-10-28T07:38:02.461Z,90.00
2022-10-28T07:40:31.320Z,90.02
2022-10-28T07:43:00.248Z,89.89
2022-10-28T07:45:29.018Z,89.96
2022-10-28T07:47:59.277Z,89.93
2022-10-28T07:50:28.034Z,90.08
2022-10-28T07:52:57.005Z,90.08
2022-10-28T07:55:26.315Z,90.06
2022-10-28T07:57:56.728Z,90.02
2022-10-28T08:00:25.753Z,89.92
2022-10-28T08:02:54.466Z,89.95
2022-10-28T08:05:24.776Z,89.90
2022-10-28T08:07:53.736Z,89.93
2022-10-28T08:10:22.808Z,89.86
2022-10-28T08:12:51.528Z,89.99
2022-10-28T08:15:23.657Z,89.89
2022-10-28T08:17:54.071Z,89.88
2022-10-28T08:20:24.872Z,89.78
2022-10-28T08:22:53.775Z,89.72
2022-10-28T08:25:22.672Z,89.73
2022-10-28T08:27:51.565Z,89.74
2022-10-28T08:30:20.381Z,89.74
2022-10-28T08:32:49.111Z,89.78
2022-10-28T08:35:17.951Z,89.67
2022-10-28T08:37:53.866Z,89.71
2022-10-28T08:40:38.631Z,89.66
2022-10-28T08:43:34.926Z,89.63
2022-10-28T08:46:23.069Z,89.59
2022-10-28T08:48:52.034Z,89.52
2022-10-28T08:51:26.771Z,89.51
2022-10-28T08:54:02.024Z,89.32
2022-10-28T08:56:36.721Z,89.15
2022-10-28T08:59:13.352Z,89.10
2022-10-28T09:01:51.785Z,88.98
2022-10-28T09:04:35.068Z,88.81
2022-10-28T09:07:05.537Z,88.63
2022-10-28T09:09:36.031Z,88.60
2022-10-28T09:12:19.304Z,88.39
2022-10-28T09:15:18.119Z,88.04
2022-10-28T09:17:55.690Z,88.01
2022-10-28T09:20:36.873Z,88.07
2022-10-28T09:23:17.606Z,88.28
2022-10-28T09:26:06.281Z,88.00
2022-10-28T09:28:56.424Z,88.00
2022-10-28T09:31:36.198Z,87.84
2022-10-28T09:34:20.425Z,87.80
2022-10-28T09:36:55.537Z,87.80
2022-10-28T09:39:30.539Z,87.67
2022-10-28T09:42:04.111Z,87.74
2022-10-28T09:44:43.828Z,87.60
2022-10-28T09:47:20.620Z,87.62
2022-10-28T09:49:53.008Z,87.53
2022-10-28T09:52:26.420Z,87.50
2022-10-28T09:54:57.056Z,87.70
2022-10-28T09:57:33.095Z,87.52
2022-10-28T10:00:02.273Z,87.75
2022-10-28T10:02:40.452Z,87.83
2022-10-28T10:05:17.177Z,87.77
2022-10-28T10:07:52.511Z,87.90
2022-10-28T10:10:29.235Z,87.95
2022-10-28T10:13:04.672Z,87.63
2022-10-28T10:15:39.589Z,87.80
2022-10-28T10:18:16.829Z,87.82
2022-10-28T10:20:52.017Z,87.67
2022-10-28T10:23:29.356Z,87.68
2022-10-28T10:26:05.585Z,87.59
2022-10-28T10:28:45.188Z,87.44
2022-10-28T10:31:22.318Z,87.33
2022-10-28T10:33:54.057Z,87.26
2022-10-28T10:36:29.196Z,87.33
2022-10-28T10:39:00.699Z,87.10
2022-10-28T10:41:37.599Z,87.04
2022-10-28T10:44:32.724Z,87.15
2022-10-28T10:47:31.938Z,87.30
2022-10-28T10:50:24.574Z,87.15
2022-10-28T10:52:57.913Z,87.24
2022-10-28T10:55:37.505Z,87.24
2022-10-28T10:58:11.474Z,87.18
2022-10-28T11:00:48.432Z,87.39
2022-10-28T11:03:25.280Z,87.33
2022-10-28T11:08:46.963Z,87.28
2022-10-28T11:11:21.926Z,87.10
2022-10-28T11:14:04.478Z,87.21
2022-10-28T11:16:34.924Z,87.33
2022-10-28T11:19:22.159Z,87.33
2022-10-28T11:22:23.088Z,87.08
2022-10-28T11:25:30.848Z,86.99
2022-10-28T11:28:33.545Z,86.93
2022-10-28T11:31:25.613Z,86.67
2022-10-28T11:34:21.394Z,87.00
2022-10-28T11:37:09.796Z,86.66
2022-10-28T11:39:55.186Z,86.62
2022-10-28T11:42:37.840Z,86.61
2022-10-28T11:45:19.284Z,86.49
2022-10-28T11:48:10.106Z,86.52
2022-10-28T11:51:06.887Z,86.28
2022-10-28T11:54:12.959Z,86.16
2022-10-28T11:56:48.905Z,85.96
2022-10-28T11:59:46.840Z,85.96
2022-10-28T12:02:37.834Z,85.93
2022-10-28T12:05:24.108Z,85.96
2022-10-28T12:08:17.602Z,85.83
2022-10-28T12:11:04.120Z,86.01
2022-10-28T12:13:45.756Z,86.12
2022-10-28T12:16:21.781Z,86.10
2022-10-28T12:18:58.790Z,85.96
2022-10-28T12:24:14.517Z,85.69
2022-10-28T12:26:49.506Z,85.87
2022-10-28T12:29:25.539Z,85.65
2022-10-28T12:32:01.808Z,85.43
2022-10-28T12:37:19.638Z,85.50
2022-10-28T12:40:00.361Z,85.38
2022-10-28T12:42:34.155Z,85.31
2022-10-28T12:45:11.392Z,85.34
2022-10-28T12:47:49.733Z,85.28
2022-10-28T12:50:28.904Z,85.44
2022-10-28T12:53:24.815Z,85.36
2022-10-28T12:56:00.390Z,85.38
2022-10-28T12:58:36.821Z,85.45
2022-10-28T13:01:12.249Z,85.46
2022-10-28T13:03:42.615Z,85.62
2022-10-28T13:07:12.458Z,85.56
2022-10-28T13:10:00.778Z,85.47
2022-10-28T13:13:13.375Z,85.65
2022-10-28T13:16:23.831Z,85.59
2022-10-28T13:19:16.387Z,85.62
2022-10-28T13:22:45.810Z,85.37
2022-10-28T13:25:45.384Z,84.96
2022-10-28T13:28:19.086Z,84.70
2022-10-28T13:30:56.888Z,84.53
2022-10-28T13:33:29.032Z,84.64
2022-10-28T13:36:17.708Z,84.69
2022-10-28T13:38:58.551Z,84.75
2022-10-28T13:41:37.586Z,84.85
2022-10-28T13:44:30.218Z,84.93
2022-10-28T13:47:29.359Z,84.70
2022-10-28T13:50:41.125Z,84.88
2022-10-28T13:53:56.625Z,84.93
2022-10-28T13:56:47.740Z,85.21
2022-10-28T13:59:28.073Z,85.18
2022-10-28T14:02:32.470Z,85.29
2022-10-28T14:05:04.902Z,85.06
2022-10-28T14:07:36.771Z,84.91
2022-10-28T14:10:23.498Z,84.84
2022-10-28T14:12:56.829Z,84.70
2022-10-28T14:15:31.780Z,84.73
2022-10-28T14:18:37.307Z,84.78
2022-10-28T14:21:01.760Z,84.71
2022-10-28T14:24:31.663Z,84.88
2022-10-28T14:27:42.990Z,84.84
2022-10-28T14:30:24.181Z,84.89
2022-10-28T14:33:12.559Z,84.96
2022-10-28T14:35:45.577Z,84.89
2022-10-28T14:38:52.949Z,84.73
2022-10-28T14:41:54.351Z,84.57
2022-10-28T14:44:47.674Z,84.55
2022-10-28T14:47:52.470Z,84.55
2022-10-28T14:50:27.580Z,84.51
2022-10-28T14:52:58.030Z,84.42
2022-10-28T14:55:31.565Z,84.37
2022-10-28T14:58:20.949Z,84.34
2022-10-28T15:01:05.088Z,84.40
2022-10-28T15:03:34.335Z,84.36
2022-10-28T15:06:27.298Z,84.27
2022-10-28T15:08:57.310Z,84.29
2022-10-28T15:11:25.979Z,84.35
2022-10-28T15:13:55.096Z,84.39
2022-10-28T15:16:26.654Z,84.45
2022-10-28T15:18:55.805Z,84.42
2022-10-28T15:21:25.822Z,84.62
2022-10-28T15:24:02.474Z,84.54
2022-10-28T15:26:31.351Z,84.46
2022-10-28T15:29:01.947Z,84.53
2022-10-28T15:31:30.551Z,84.59
2022-10-28T15:33:59.118Z,84.53
2022-10-28T15:36:29.547Z,84.58
2022-10-28T15:39:09.053Z,84.55
2022-10-28T15:41:43.907Z,84.57
2022-10-28T15:44:36.828Z,84.76
2022-10-28T15:47:27.164Z,84.86
2022-10-28T15:50:03.769Z,85.00
2022-10-28T15:52:43.265Z,84.88
2022-10-28T15:55:41.530Z,84.93
2022-10-28T15:58:37.098Z,84.90
2022-10-28T16:01:11.830Z,85.01
2022-10-28T16:03:46.473Z,85.10
2022-10-28T16:06:31.740Z,85.04
2022-10-28T16:09:07.298Z,85.19
2022-10-28T16:11:41.779Z,85.22
2022-10-28T16:14:39.705Z,85.36
2022-10-28T16:17:16.868Z,85.50
2022-10-28T16:19:52.731Z,85.33
2022-10-28T16:22:22.761Z,85.31
2022-10-28T16:24:55.194Z,85.41
2022-10-28T16:27:27.935Z,85.47
2022-10-28T16:29:56.931Z,85.50
2022-10-28T16:32:32.705Z,85.43
2022-10-28T16:35:04.888Z,85.42
2022-10-28T16:37:38.326Z,85.54
2022-10-28T16:40:37.734Z,85.53
2022-10-28T16:43:02.983Z,85.74
2022-10-28T16:45:32.226Z,85.72
2022-10-28T16:48:01.377Z,86.14
2022-10-28T16:50:30.293Z,85.91
2022-10-28T16:52:59.436Z,86.40
2022-10-28T16:55:30.969Z,86.00
2022-10-28T16:58:00.360Z,86.24
2022-10-28T17:00:29.605Z,86.06
2022-10-28T17:02:58.834Z,86.58
2022-10-28T17:05:28.386Z,86.43
2022-10-28T17:07:59.059Z,86.58
2022-10-28T17:10:30.800Z,86.81
2022-10-28T17:13:07.227Z,86.85
2022-10-28T17:15:37.160Z,86.84
2022-10-28T17:18:07.026Z,86.71
2022-10-28T17:20:36.337Z,86.89
2022-10-28T17:23:09.397Z,86.86
2022-10-28T17:28:15.889Z,87.03
2022-10-28T17:30:45.438Z,87.03
2022-10-28T17:33:16.676Z,86.94
2022-10-28T17:35:48.989Z,87.16
2022-10-28T17:38:18.505Z,87.30
2022-10-28T17:40:56.252Z,87.26
2022-10-28T17:43:26.098Z,87.28
2022-10-28T17:46:05.004Z,87.40
2022-10-28T17:48:37.360Z,87.39
2022-10-28T17:51:06.936Z,87.49
2022-10-28T17:53:38.594Z,87.73
2022-10-28T17:56:10.694Z,87.80
2022-10-28T17:58:43.167Z,87.86
2022-10-28T18:01:13.095Z,87.66
2022-10-28T18:03:42.543Z,87.97
2022-10-28T18:06:14.338Z,87.88
2022-10-28T18:08:45.611Z,87.93
2022-10-28T18:11:19.868Z,88.02
2022-10-28T18:13:53.070Z,88.01
2022-10-28T18:16:25.555Z,88.01
2022-10-28T18:18:55.847Z,88.40
2022-10-28T18:21:28.746Z,88.47
2022-10-28T18:24:04.164Z,88.61
2022-10-28T18:26:37.819Z,88.68
2022-10-28T18:29:10.436Z,88.67
2022-10-28T18:31:42.439Z,88.74
2022-10-28T18:34:12.040Z,88.73
2022-10-28T18:36:41.771Z,88.80
2022-10-28T18:39:14.818Z,88.79
2022-10-28T18:41:45.514Z,88.82
2022-10-28T18:44:20.254Z,88.89
2022-10-28T18:46:51.430Z,88.91
2022-10-28T18:49:20.805Z,88.82
2022-10-28T18:51:50.252Z,88.90
2022-10-28T18:54:19.823Z,88.80
2022-10-28T18:56:53.719Z,88.99
2022-10-28T18:59:26.672Z,89.47
2022-10-28T19:01:56.264Z,89.71
2022-10-28T19:04:25.935Z,89.82
2022-10-28T19:06:55.302Z,90.37
2022-10-28T19:09:24.578Z,90.32
2022-10-28T19:11:57.140Z,90.46
2022-10-28T19:14:26.568Z,90.41
2022-10-28T19:17:03.568Z,90.38
2022-10-28T19:19:36.860Z,90.25
2022-10-28T19:22:08.769Z,90.35
2022-10-28T19:24:37.839Z,90.15
2022-10-28T19:27:12.187Z,90.09
2022-10-28T19:29:41.339Z,90.21
2022-10-28T19:32:10.520Z,90.16
2022-10-28T19:34:40.261Z,90.27
2022-10-28T19:37:09.739Z,90.29
2022-10-28T19:39:38.919Z,90.35
2022-10-28T19:42:08.205Z,90.38
2022-10-28T19:44:38.909Z,90.42
2022-10-28T19:47:11.011Z,90.21
2022-10-28T19:49:44.289Z,90.38
2022-10-28T19:52:13.786Z,90.43
2022-10-28T19:54:42.915Z,90.50
2022-10-28T19:59:44.342Z,90.65
2022-10-28T20:02:13.692Z,90.71
2022-10-28T20:04:42.803Z,90.55
2022-10-28T20:07:13.169Z,90.61
2022-10-28T20:09:44.591Z,90.81
2022-10-28T20:12:14.127Z,90.82
2022-10-28T20:14:44.804Z,91.01
2022-10-28T20:17:15.453Z,91.27
2022-10-28T20:19:44.701Z,91.20
2022-10-28T20:22:14.126Z,91.26
2022-10-28T20:24:43.458Z,91.40
2022-10-28T20:27:12.681Z,91.54
2022-10-28T20:29:41.578Z,91.52
2022-10-28T20:32:12.103Z,91.68
2022-10-28T20:34:40.902Z,91.77
2022-10-28T20:37:09.869Z,91.53
2022-10-28T20:39:38.732Z,91.68
2022-10-28T20:42:07.849Z,91.78
2022-10-28T20:44:36.898Z,91.64
2022-10-28T20:47:06.067Z,91.63
2022-10-28T20:49:36.242Z,91.74
2022-10-28T20:52:05.120Z,91.66
2022-10-28T20:54:33.942Z,91.87
2022-10-28T20:57:02.803Z,91.97
2022-10-28T20:59:31.617Z,91.83
2022-10-28T21:02:00.507Z,92.14
2022-10-28T21:04:29.562Z,91.96
2022-10-28T21:06:59.675Z,92.21
2022-10-28T21:09:28.367Z,92.27
2022-10-28T21:11:59.889Z,92.11
2022-10-28T21:14:28.489Z,91.77
2022-10-28T21:17:04.465Z,92.19
2022-10-28T21:19:37.232Z,92.33
2022-10-28T21:22:08.492Z,92.34
2022-10-28T21:24:37.127Z,92.59
2022-10-28T21:27:05.947Z,92.41
2022-10-28T21:29:34.586Z,92.42
2022-10-28T21:32:03.218Z,92.31
2022-10-28T21:34:31.885Z,92.53
2022-10-28T21:37:00.832Z,92.39
2022-10-28T21:39:30.942Z,92.52
2022-10-28T21:41:59.611Z,92.48
2022-10-28T21:44:28.253Z,92.39
2022-10-28T21:46:57.182Z,92.30
2022-10-28T21:49:25.979Z,92.39
2022-10-28T21:51:54.791Z,92.43
2022-10-28T21:54:23.508Z,92.37
2022-10-28T21:56:54.046Z,92.41
2022-10-28T21:59:22.744Z,92.41
2022-10-28T22:01:51.543Z,92.49
2022-10-28T22:04:20.302Z,92.49
2022-10-28T22:06:49.296Z,92.63
2022-10-28T22:09:18.267Z,92.42
2022-10-28T22:11:47.084Z,92.49
2022-10-28T22:14:17.564Z,92.45
2022-10-28T22:16:46.356Z,92.59
2022-10-28T22:19:16.267Z,92.66
2022-10-28T22:21:45.060Z,92.80
2022-10-28T22:24:13.836Z,92.93
2022-10-28T22:26:42.770Z,92.86
2022-10-28T22:29:11.616Z,92.87
2022-10-28T22:31:41.712Z,92.82
2022-10-28T22:34:10.466Z,92.86
2022-10-28T22:36:40.414Z,92.80
2022-10-28T22:39:09.109Z,92.64
2022-10-28T22:41:37.815Z,92.74
2022-10-28T22:44:07.694Z,92.78
2022-10-28T22:46:36.810Z,92.81
2022-10-28T22:49:06.967Z,93.06
2022-10-28T22:51:35.729Z,92.83
2022-10-28T22:54:04.618Z,92.87
2022-10-28T22:56:33.547Z,92.90
2022-10-28T22:59:03.749Z,92.83
2022-10-28T23:01:32.704Z,92.89
2022-10-28T23:04:02.101Z,92.96
2022-10-28T23:06:32.265Z,92.93
2022-10-28T23:09:01.140Z,92.97
2022-10-28T23:11:30.106Z,93.05
2022-10-28T23:13:58.757Z,92.96
2022-10-28T23:16:27.984Z,92.87
2022-10-28T23:18:56.894Z,93.04
2022-10-28T23:21:27.358Z,92.51
2022-10-28T23:23:59.763Z,92.95
2022-10-28T23:26:30.799Z,92.86
2022-10-28T23:29:01.134Z,92.90
2022-10-28T23:31:30.379Z,92.40
2022-10-28T23:33:59.346Z,92.28
2022-10-28T23:36:28.175Z,92.46
2022-10-28T23:38:59.305Z,92.26
2022-10-28T23:41:28.089Z,92.75
2022-10-28T23:43:57.054Z,92.80
2022-10-28T23:46:25.714Z,92.77
2022-10-28T23:48:54.628Z,92.87
2022-10-28T23:51:23.296Z,92.75
2022-10-28T23:53:52.062Z,92.68
2022-10-28T23:56:22.291Z,92.74
2022-10-28T23:58:51.096Z,92.37
